createdAt,value
2022-10-05T00:00:51.116Z,91
2022-10-05T00:05:43.292Z,91
2022-10-05T00:08:09.603Z,91
2022-10-05T00:09:22.417Z,91
2022-10-05T00:13:01.044Z,91
2022-10-05T00:14:14.635Z,91
2022-10-05T00:15:26.935Z,91
2022-10-05T00:20:19.098Z,91
2022-10-05T00:25:11.453Z,91
2022-10-05T00:26:24.130Z,91
2022-10-05T00:28:50.058Z,91
2022-10-05T00:30:03.319Z,91
2022-10-05T00:31:16.160Z,91
2022-10-05T00:32:29.620Z,91
2022-10-05T00:33:42.158Z,91
2022-10-05T00:34:55.345Z,91
2022-10-05T00:37:21.537Z,91
2022-10-05T00:38:34.180Z,91
2022-10-05T00:39:47.613Z,91
2022-10-05T00:41:00.253Z,91
2022-10-05T00:42:13.242Z,91
2022-10-05T00:48:18.042Z,91
2022-10-05T00:49:31.465Z,91
2022-10-05T00:50:43.830Z,91
2022-10-05T00:51:57.202Z,91
2022-10-05T00:53:10.067Z,91
2022-10-05T00:55:36.054Z,91
2022-10-05T00:58:01.926Z,91
2022-10-05T00:59:15.304Z,91
2022-10-05T01:01:41.264Z,91
2022-10-05T01:02:54.253Z,91
2022-10-05T01:04:07.482Z,91
2022-10-05T01:05:20.122Z,91
2022-10-05T01:07:46.099Z,91
2022-10-05T01:08:59.027Z,91
2022-10-05T01:10:11.992Z,91
2022-10-05T01:12:38.241Z,91
2022-10-05T01:13:51.615Z,91
2022-10-05T01:16:17.137Z,91
2022-10-05T01:17:29.921Z,91
2022-10-05T01:18:43.150Z,91
2022-10-05T01:19:56.868Z,91
2022-10-05T01:21:09.703Z,91
2022-10-05T01:22:22.182Z,91
2022-10-05T01:23:35.131Z,91
2022-10-05T01:27:14.494Z,91
2022-10-05T01:28:27.378Z,91
2022-10-05T01:29:40.695Z,91
2022-10-05T01:30:52.922Z,91
2022-10-05T01:33:19.123Z,91
2022-10-05T01:34:32.175Z,91
2022-10-05T01:35:44.851Z,91
2022-10-05T01:36:57.360Z,91
2022-10-05T01:38:10.803Z,91
2022-10-05T01:40:37.126Z,91
2022-10-05T01:41:50.106Z,91
2022-10-05T01:46:42.255Z,91
2022-10-05T01:47:55.405Z,91
2022-10-05T01:50:21.373Z,91
2022-10-05T01:51:34.247Z,91
2022-10-05T01:52:47.345Z,91
2022-10-05T01:55:13.087Z,91
2022-10-05T01:57:39.400Z,92
2022-10-05T02:01:18.284Z,92
2022-10-05T02:02:31.217Z,92
2022-10-05T02:06:10.034Z,92
2022-10-05T02:07:23.463Z,92
2022-10-05T02:08:36.112Z,92
2022-10-05T02:09:48.837Z,92
2022-10-05T02:13:28.140Z,92
2022-10-05T02:14:41.134Z,92
2022-10-05T02:15:54.023Z,92
2022-10-05T02:17:07.174Z,92
2022-10-05T02:18:20.102Z,92
2022-10-05T02:21:59.096Z,92
2022-10-05T02:23:12.085Z,92
2022-10-05T02:25:37.943Z,92
2022-10-05T02:26:51.092Z,92
2022-10-05T02:29:17.188Z,92
2022-10-05T02:31:43.662Z,92
2022-10-05T02:32:56.269Z,92
2022-10-05T02:35:22.083Z,92
2022-10-05T02:37:48.002Z,92
2022-10-05T02:39:00.905Z,92
2022-10-05T02:41:27.665Z,92
2022-10-05T02:46:19.106Z,92
2022-10-05T02:48:45.554Z,92
2022-10-05T02:49:58.139Z,92
2022-10-05T02:58:29.674Z,92
2022-10-05T03:02:08.210Z,93
2022-10-05T03:03:21.089Z,93
2022-10-05T03:05:47.228Z,93
2022-10-05T03:07:00.340Z,93
2022-10-05T03:08:13.275Z,93
2022-10-05T03:09:26.213Z,93
2022-10-05T03:11:52.060Z,93
2022-10-05T03:14:18.478Z,93
2022-10-05T03:19:10.160Z,93
2022-10-05T03:21:36.228Z,93
2022-10-05T03:22:49.131Z,93
2022-10-05T03:24:02.559Z,93
2022-10-05T03:25:15.030Z,93
2022-10-05T03:26:28.203Z,93
2022-10-05T03:27:41.270Z,93
2022-10-05T03:28:54.281Z,93
2022-10-05T03:30:07.421Z,93
2022-10-05T03:31:20.300Z,93
2022-10-05T03:33:46.678Z,93
2022-10-05T03:34:59.280Z,93
2022-10-05T03:36:11.855Z,93
2022-10-05T03:37:25.745Z,93
2022-10-05T03:39:50.867Z,93
2022-10-05T03:41:03.972Z,93
2022-10-05T03:42:17.009Z,93
2022-10-05T03:44:43.130Z,92
2022-10-05T03:45:56.667Z,92
2022-10-05T03:47:08.942Z,92
2022-10-05T03:49:34.971Z,93
2022-10-05T03:50:48.463Z,93
2022-10-05T03:52:01.500Z,93
2022-10-05T03:53:14.633Z,92
2022-10-05T03:54:27.669Z,92
2022-10-05T03:55:40.570Z,92
2022-10-05T03:56:53.668Z,92
2022-10-05T03:58:05.971Z,92
2022-10-05T03:59:19.300Z,92
2022-10-05T04:02:58.664Z,92
2022-10-05T04:06:37.149Z,92
2022-10-05T04:07:50.517Z,92
2022-10-05T04:09:02.991Z,92
2022-10-05T04:11:29.080Z,93
2022-10-05T04:12:42.111Z,93
2022-10-05T04:15:08.399Z,93
2022-10-05T04:17:34.214Z,93
2022-10-05T04:18:46.968Z,93
2022-10-05T04:20:00.130Z,93
2022-10-05T04:21:12.569Z,93
2022-10-05T04:22:26.430Z,93
2022-10-05T04:23:39.703Z,93
2022-10-05T04:24:52.099Z,93
2022-10-05T04:26:05.102Z,93
2022-10-05T04:28:34.127Z,93
2022-10-05T04:29:44.683Z,93
2022-10-05T04:30:57.511Z,93
2022-10-05T04:32:10.111Z,93
2022-10-05T04:37:01.870Z,93
2022-10-05T04:38:14.976Z,93
2022-10-05T04:40:41.108Z,93
2022-10-05T04:43:07.125Z,92
2022-10-05T04:44:20.447Z,92
2022-10-05T04:45:33.164Z,92
2022-10-05T05:00:09.689Z,91
2022-10-05T05:02:35.220Z,91
2022-10-05T05:03:48.533Z,91
2022-10-05T05:05:01.704Z,91
2022-10-05T05:06:17.907Z,91
2022-10-05T05:11:06.306Z,91
2022-10-05T05:18:24.184Z,91
2022-10-05T05:20:49.973Z,91
2022-10-05T05:23:16.059Z,91
2022-10-05T05:25:42.444Z,91
2022-10-05T05:26:55.296Z,91
2022-10-05T05:28:08.659Z,91
2022-10-05T05:30:34.155Z,91
2022-10-05T05:32:59.917Z,91
2022-10-05T05:34:13.406Z,91
2022-10-05T05:35:26.156Z,91
2022-10-05T05:36:39.118Z,91
2022-10-05T05:39:04.833Z,91
2022-10-05T05:40:18.159Z,91
2022-10-05T05:41:30.953Z,91
2022-10-05T05:42:44.419Z,91
2022-10-05T05:43:57.198Z,91
2022-10-05T05:48:49.150Z,91
2022-10-05T05:51:14.865Z,91
2022-10-05T05:52:28.723Z,91
2022-10-05T05:59:46.282Z,91
2022-10-05T06:00:59.050Z,91
2022-10-05T06:02:11.967Z,91
2022-10-05T06:04:38.538Z,91
2022-10-05T06:05:51.541Z,91
2022-10-05T06:07:04.165Z,91
2022-10-05T06:08:17.039Z,91
2022-10-05T06:09:29.816Z,91
2022-10-05T06:10:43.138Z,91
2022-10-05T06:11:56.090Z,91
2022-10-05T06:14:22.202Z,91
2022-10-05T06:15:34.952Z,91
2022-10-05T06:16:48.408Z,91
2022-10-05T06:18:01.061Z,91
2022-10-05T06:21:39.859Z,90
2022-10-05T06:22:53.276Z,90
2022-10-05T06:24:06.023Z,91
2022-10-05T06:25:19.077Z,90
2022-10-05T06:26:32.103Z,90
2022-10-05T06:27:45.001Z,90
2022-10-05T06:28:58.090Z,90
2022-10-05T06:31:24.250Z,90
2022-10-05T06:33:49.913Z,90
2022-10-05T06:35:03.117Z,90
2022-10-05T06:36:16.028Z,90
2022-10-05T06:37:29.028Z,90
2022-10-05T06:38:42.471Z,90
2022-10-05T06:40:01.045Z,90
2022-10-05T06:43:34.046Z,89
2022-10-05T06:44:47.215Z,89
2022-10-05T06:45:59.956Z,89
2022-10-05T06:47:12.969Z,89
2022-10-05T06:48:25.736Z,89
2022-10-05T06:49:38.898Z,89
2022-10-05T06:50:52.103Z,89
2022-10-05T06:52:04.924Z,89
2022-10-05T06:53:18.127Z,89
2022-10-05T06:54:31.047Z,89
2022-10-05T06:55:44.138Z,89
2022-10-05T06:56:57.370Z,89
2022-10-05T06:58:09.881Z,89
2022-10-05T06:59:23.203Z,89
2022-10-05T07:01:49.376Z,89
2022-10-05T07:03:02.101Z,89
2022-10-05T07:04:15.035Z,89
2022-10-05T07:05:27.278Z,89
2022-10-05T07:06:41.024Z,89
2022-10-05T07:07:54.187Z,89
2022-10-05T07:09:06.999Z,89
2022-10-05T07:10:20.005Z,89
2022-10-05T07:11:33.162Z,89
2022-10-05T07:12:46.176Z,89
2022-10-05T07:13:59.599Z,89
2022-10-05T07:15:12.333Z,89
2022-10-05T07:17:38.453Z,88
2022-10-05T07:20:04.017Z,88
2022-10-05T07:21:16.909Z,88
2022-10-05T07:22:33.465Z,88
2022-10-05T07:23:43.338Z,88
2022-10-05T07:24:56.170Z,88
2022-10-05T07:26:09.306Z,88
2022-10-05T07:27:22.189Z,88
2022-10-05T07:28:35.096Z,88
2022-10-05T07:29:48.052Z,88
2022-10-05T07:31:01.230Z,88
2022-10-05T07:32:14.381Z,88
2022-10-05T07:33:27.304Z,88
2022-10-05T07:34:40.017Z,88
2022-10-05T07:35:53.084Z,88
2022-10-05T07:37:06.047Z,88
2022-10-05T07:38:19.033Z,88
2022-10-05T07:39:58.931Z,88
2022-10-05T07:40:45.513Z,88
2022-10-05T07:41:58.578Z,88
2022-10-05T07:43:10.918Z,88
2022-10-05T07:44:23.859Z,88
2022-10-05T07:45:37.128Z,87
2022-10-05T07:46:50.447Z,87
2022-10-05T07:48:03.061Z,87
2022-10-05T07:49:16.349Z,87
2022-10-05T07:50:29.062Z,87
2022-10-05T07:51:42.493Z,87
2022-10-05T07:52:54.986Z,87
2022-10-05T07:55:21.046Z,87
2022-10-05T07:56:34.637Z,87
2022-10-05T07:57:47.499Z,87
2022-10-05T07:59:00.085Z,87
2022-10-05T08:00:13.205Z,87
2022-10-05T08:01:26.097Z,87
2022-10-05T08:02:39.571Z,87
2022-10-05T08:03:52.039Z,87
2022-10-05T08:05:04.993Z,87
2022-10-05T08:06:18.086Z,87
2022-10-05T08:07:31.360Z,86
2022-10-05T08:08:43.969Z,87
2022-10-05T08:09:57.313Z,86
2022-10-05T08:13:36.526Z,86
2022-10-05T08:14:49.053Z,86
2022-10-05T08:16:02.616Z,86
2022-10-05T08:17:14.936Z,86
2022-10-05T08:18:28.381Z,86
2022-10-05T08:20:54.105Z,86
2022-10-05T08:23:20.095Z,86
2022-10-05T08:26:59.570Z,86
2022-10-05T08:28:12.266Z,86
2022-10-05T08:29:25.085Z,85
2022-10-05T08:30:38.002Z,85
2022-10-05T08:31:51.528Z,86
2022-10-05T08:33:04.354Z,85
2022-10-05T08:34:17.015Z,85
2022-10-05T08:35:30.010Z,85
2022-10-05T08:36:43.072Z,85
2022-10-05T08:37:56.002Z,85
2022-10-05T08:39:09.031Z,85
2022-10-05T08:40:22.004Z,85
2022-10-05T08:41:34.990Z,85
2022-10-05T08:42:47.985Z,84
2022-10-05T08:44:01.030Z,84
2022-10-05T08:45:14.012Z,84
2022-10-05T08:46:27.112Z,84
2022-10-05T08:47:40.032Z,84
2022-10-05T08:48:53.102Z,84
2022-10-05T08:50:06.034Z,84
2022-10-05T08:51:19.032Z,84
2022-10-05T08:52:32.056Z,83
2022-10-05T08:53:45.016Z,84
2022-10-05T08:54:58.048Z,84
2022-10-05T08:56:11.040Z,84
2022-10-05T08:57:23.896Z,83
2022-10-05T08:58:37.182Z,83
2022-10-05T08:59:50.021Z,82
2022-10-05T09:01:03.115Z,82
2022-10-05T09:02:16.002Z,82
2022-10-05T09:03:34.388Z,82
2022-10-05T09:04:42.004Z,82
2022-10-05T09:05:55.062Z,82
2022-10-05T09:13:12.805Z,80
2022-10-05T09:22:57.335Z,80
2022-10-05T10:03:05.877Z,76
2022-10-05T10:21:20.824Z,76
2022-10-05T10:29:52.529Z,76
2022-10-05T11:20:02.832Z,73
2022-10-05T11:23:23.842Z,72
2022-10-05T11:38:00.036Z,71
2022-10-05T11:42:51.897Z,71
2022-10-05T11:44:08.248Z,71
2022-10-05T11:56:14.874Z,70
2022-10-05T12:02:20.193Z,70
2022-10-05T12:05:58.866Z,70
2022-10-05T12:07:12.185Z,71
2022-10-05T12:46:07.880Z,68
2022-10-05T13:00:44.235Z,66
2022-10-05T13:16:32.933Z,65
2022-10-05T13:26:17.143Z,64
2022-10-05T13:59:07.927Z,62
2022-10-05T14:00:26.466Z,62
2022-10-05T14:01:33.675Z,62
2022-10-05T14:10:04.958Z,62
2022-10-05T14:11:17.670Z,62
2022-10-05T14:28:20.460Z,63
2022-10-05T14:41:42.985Z,63
2022-10-05T14:55:06.022Z,62
2022-10-05T14:57:31.824Z,62
2022-10-05T15:09:41.762Z,63
2022-10-05T15:14:33.780Z,63
2022-10-05T15:17:00.193Z,63
2022-10-05T15:23:04.667Z,63
2022-10-05T15:24:18.131Z,62
2022-10-05T15:26:43.705Z,63
2022-10-05T15:30:23.206Z,63
2022-10-05T15:31:35.765Z,63
2022-10-05T15:32:48.677Z,62
2022-10-05T15:34:02.135Z,63
2022-10-05T15:35:14.776Z,63
2022-10-05T15:36:27.739Z,63
2022-10-05T15:37:40.956Z,64
2022-10-05T15:41:20.173Z,64
2022-10-05T15:43:46.184Z,63
2022-10-05T15:44:58.726Z,62
2022-10-05T15:46:12.477Z,63
2022-10-05T15:48:37.730Z,61
2022-10-05T15:51:03.761Z,62
2022-10-05T15:52:16.803Z,63
2022-10-05T15:53:29.883Z,63
2022-10-05T15:55:55.904Z,63
2022-10-05T15:57:09.152Z,62
2022-10-05T15:58:22.006Z,62
2022-10-05T15:59:34.848Z,62
2022-10-05T16:00:47.610Z,62
2022-10-05T16:02:01.080Z,62
2022-10-05T16:03:13.964Z,62
2022-10-05T16:04:26.886Z,62
2022-10-05T16:05:39.748Z,62
2022-10-05T16:06:52.791Z,62
2022-10-05T16:09:18.894Z,62
2022-10-05T16:10:32.074Z,62
2022-10-05T16:11:44.995Z,62
2022-10-05T16:12:57.993Z,62
2022-10-05T16:14:11.158Z,62
2022-10-05T16:15:23.689Z,62
2022-10-05T16:16:36.703Z,61
2022-10-05T16:17:49.720Z,62
2022-10-05T16:20:16.024Z,62
2022-10-05T16:21:28.846Z,62
2022-10-05T16:23:54.914Z,63
2022-10-05T16:25:07.965Z,63
2022-10-05T16:26:20.765Z,63
2022-10-05T16:27:33.918Z,63
2022-10-05T16:29:59.848Z,63
2022-10-05T16:31:13.239Z,63
2022-10-05T16:32:25.849Z,63
2022-10-05T16:33:41.307Z,63
2022-10-05T16:34:52.086Z,63
2022-10-05T16:36:04.922Z,64
2022-10-05T16:37:18.525Z,63
2022-10-05T16:41:01.876Z,64
2022-10-05T16:43:22.974Z,63
2022-10-05T16:44:35.791Z,63
2022-10-05T16:45:49.304Z,64
2022-10-05T16:48:15.319Z,64
2022-10-05T16:49:27.742Z,65
2022-10-05T16:51:53.871Z,65
2022-10-05T16:53:06.854Z,65
2022-10-05T16:54:19.835Z,65
2022-10-05T16:55:32.902Z,65
2022-10-05T16:56:45.899Z,65
2022-10-05T16:57:58.628Z,66
2022-10-05T16:59:11.985Z,66
2022-10-05T17:00:25.157Z,66
2022-10-05T17:02:50.972Z,66
2022-10-05T17:04:03.976Z,66
2022-10-05T17:05:17.259Z,66
2022-10-05T17:06:30.182Z,66
2022-10-05T17:07:42.913Z,66
2022-10-05T17:08:56.191Z,66
2022-10-05T17:10:08.842Z,67
2022-10-05T17:12:34.905Z,67
2022-10-05T17:13:47.865Z,66
2022-10-05T17:15:00.914Z,67
2022-10-05T17:16:14.031Z,66
2022-10-05T17:17:26.797Z,66
2022-10-05T17:18:39.766Z,67
2022-10-05T17:19:52.821Z,67
2022-10-05T17:22:18.931Z,67
2022-10-05T17:23:32.045Z,66
2022-10-05T17:24:44.828Z,65
2022-10-05T17:25:57.968Z,65
2022-10-05T17:27:10.738Z,65
2022-10-05T17:28:23.977Z,66
2022-10-05T17:29:36.970Z,66
2022-10-05T17:30:49.781Z,66
2022-10-05T17:32:03.327Z,66
2022-10-05T17:33:15.761Z,66
2022-10-05T17:34:29.171Z,66
2022-10-05T17:35:42.167Z,66
2022-10-05T17:36:54.851Z,65
2022-10-05T17:38:07.816Z,66
2022-10-05T17:39:21.416Z,66
2022-10-05T17:40:33.986Z,65
2022-10-05T17:41:46.699Z,66
2022-10-05T17:42:59.828Z,66
2022-10-05T17:44:12.890Z,66
2022-10-05T17:45:25.336Z,66
2022-10-05T17:46:39.165Z,66
2022-10-05T17:47:52.417Z,67
2022-10-05T17:50:17.735Z,67
2022-10-05T17:51:30.839Z,67
2022-10-05T17:52:44.132Z,66
2022-10-05T17:53:56.962Z,66
2022-10-05T17:55:10.131Z,66
2022-10-05T17:56:22.909Z,66
2022-10-05T17:57:35.814Z,66
2022-10-05T17:58:48.843Z,66
2022-10-05T18:00:03.041Z,67
2022-10-05T18:01:14.945Z,66
2022-10-05T18:02:30.544Z,66
2022-10-05T18:03:41.237Z,67
2022-10-05T18:12:11.725Z,68
2022-10-05T18:17:03.825Z,68
2022-10-05T18:19:30.192Z,68
2022-10-05T18:26:47.824Z,68
2022-10-05T18:28:00.912Z,68
2022-10-05T18:30:26.745Z,68
2022-10-05T18:31:39.959Z,68
2022-10-05T18:34:05.888Z,68
2022-10-05T18:35:18.930Z,68
2022-10-05T18:36:38.315Z,68
2022-10-05T18:37:44.799Z,68
2022-10-05T18:38:57.793Z,68
2022-10-05T18:40:10.818Z,69
2022-10-05T18:41:23.825Z,68
2022-10-05T18:42:36.799Z,68
2022-10-05T18:43:49.828Z,68
2022-10-05T18:46:16.015Z,69
2022-10-05T18:51:08.221Z,69
2022-10-05T18:57:13.417Z,69
2022-10-05T19:00:52.252Z,69
2022-10-05T19:03:17.988Z,69
2022-10-05T19:05:48.596Z,69
2022-10-05T19:17:54.051Z,69
2022-10-05T19:19:06.748Z,69
2022-10-05T19:21:33.212Z,69
2022-10-05T19:22:45.802Z,69
2022-10-05T19:23:58.802Z,69
2022-10-05T19:25:12.136Z,69
2022-10-05T19:26:24.675Z,69
2022-10-05T19:27:37.789Z,69
2022-10-05T19:28:50.559Z,70
2022-10-05T19:30:03.841Z,70
2022-10-05T19:31:16.870Z,70
2022-10-05T19:32:29.791Z,70
2022-10-05T19:34:55.832Z,70
2022-10-05T19:36:08.892Z,70
2022-10-05T19:37:21.814Z,70
2022-10-05T19:38:34.778Z,70
2022-10-05T19:43:26.972Z,70
2022-10-05T19:55:36.687Z,69
2022-10-05T20:10:13.228Z,69
2022-10-05T20:13:52.124Z,69
2022-10-05T20:15:04.804Z,69
2022-10-05T20:18:44.300Z,69
2022-10-05T20:19:56.725Z,69
2022-10-05T20:22:23.084Z,69
2022-10-05T20:29:40.507Z,69
2022-10-05T20:30:53.812Z,69
2022-10-05T20:32:06.569Z,69
2022-10-05T20:33:19.742Z,69
2022-10-05T20:34:33.115Z,69
2022-10-05T20:35:45.774Z,69
2022-10-05T20:36:58.824Z,69
2022-10-05T20:38:11.788Z,70
2022-10-05T20:39:25.033Z,69
2022-10-05T20:40:38.128Z,70
2022-10-05T20:44:17.096Z,69
2022-10-05T20:45:29.809Z,69
2022-10-05T20:46:43.242Z,69
2022-10-05T20:47:55.794Z,69
2022-10-05T20:49:08.660Z,69
2022-10-05T20:50:21.779Z,69
2022-10-05T20:51:34.641Z,69
2022-10-05T20:52:47.768Z,69
2022-10-05T20:54:00.795Z,69
2022-10-05T20:58:52.820Z,69
2022-10-05T21:02:32.514Z,68
2022-10-05T21:13:28.684Z,68
2022-10-05T21:14:42.576Z,68
2022-10-05T21:17:08.380Z,68
2022-10-05T21:19:33.730Z,68
2022-10-05T21:20:46.772Z,68
2022-10-05T21:21:59.958Z,68
2022-10-05T21:23:13.211Z,69
2022-10-05T22:13:05.622Z,85
2022-10-05T23:02:59.142Z,93
2022-10-05T23:15:08.554Z,93
2022-10-05T23:35:49.577Z,94
